Time,TemperatureF,DewpointF,PressureIn,WindDirection,WindDirectionDegrees,WindSpeedMPH,WindSpeedGustMPH,Humidity,HourlyPrecipIn,Conditions,Clouds,dailyrainin,SolarRadiationWatts/m^2,SoftwareType,DateUTC
2013-08-21 01:11:00,54.0,42.0,-100.00,North,349,6.0,10.0,63,-99.99,,,0.04,0.000000,,2013-08-21 07:11:00,
2013-08-21 01:22:00,54.0,42.0,-100.00,North,349,6.0,10.0,63,-99.99,,,0.04,0.000000,,2013-08-21 07:22:00,
2013-08-21 01:32:00,54.0,42.0,-100.00,North,349,6.0,10.0,63,-99.99,,,0.04,0.000000,,2013-08-21 07:32:00,
2013-08-21 04:13:00,50.0,40.0,-100.00,North,354,5.0,10.0,69,-99.99,,,0.04,0.000000,,2013-08-21 10:13:00,
2013-08-21 04:23:00,50.0,40.0,-100.00,North,354,5.0,10.0,69,-99.99,,,0.04,0.000000,,2013-08-21 10:23:00,
2013-08-21 04:33:00,50.0,40.0,-100.00,North,354,5.0,10.0,69,-99.99,,,0.04,0.000000,,2013-08-21 10:33:00,
2013-08-21 08:11:00,50.0,43.0,-100.00,North,354,5.0,9.0,77,-99.99,,,0.04,39.000000,,2013-08-21 14:11:00,
2013-08-21 08:21:00,50.0,43.0,-100.00,North,354,5.0,9.0,77,-99.99,,,0.04,39.000000,,2013-08-21 14:21:00,
2013-08-21 08:32:00,50.0,43.0,-100.00,North,354,5.0,9.0,77,-99.99,,,0.04,39.000000,,2013-08-21 14:32:00,
2013-08-21 09:11:00,65.0,46.0,-100.00,SSE,163,5.0,7.0,50,-99.99,,,0.04,217.000000,,2013-08-21 15:11:00,
2013-08-21 09:22:00,65.0,46.0,-100.00,SSE,163,5.0,7.0,50,-99.99,,,0.04,217.000000,,2013-08-21 15:22:00,
2013-08-21 09:34:00,65.0,46.0,-100.00,SSE,163,5.0,7.0,50,-99.99,,,0.04,217.000000,,2013-08-21 15:34:00,
2013-08-21 10:13:00,69.0,45.0,-100.00,SSE,157,6.0,12.0,42,0.00,,,0.04,420.000000,,2013-08-21 16:13:00,
2013-08-21 10:24:00,69.0,45.0,-100.00,SSE,157,6.0,12.0,42,0.00,,,0.04,420.000000,,2013-08-21 16:24:00,
2013-08-21 10:34:00,69.0,45.0,-100.00,SSE,157,6.0,12.0,42,0.00,,,0.04,420.000000,,2013-08-21 16:34:00,
2013-08-21 11:13:00,73.0,44.0,-100.00,SSE,159,7.0,13.0,36,0.00,,,0.04,622.000000,,2013-08-21 17:13:00,
2013-08-21 11:23:00,73.0,44.0,-100.00,SSE,159,7.0,13.0,36,0.00,,,0.04,622.000000,,2013-08-21 17:23:00,
2013-08-21 11:34:00,73.0,44.0,-100.00,SSE,159,7.0,13.0,36,0.00,,,0.04,622.000000,,2013-08-21 17:34:00,
2013-08-21 12:12:00,75.0,43.0,-100.00,South,172,7.0,13.0,32,0.00,,,0.04,561.000000,,2013-08-21 18:12:00,
2013-08-21 12:22:00,75.0,43.0,-100.00,South,172,7.0,13.0,32,0.00,,,0.04,561.000000,,2013-08-21 18:22:00,
2013-08-21 12:32:00,75.0,43.0,-100.00,South,172,7.0,13.0,32,0.00,,,0.04,561.000000,,2013-08-21 18:32:00,
2013-08-21 13:12:00,75.0,42.0,-100.00,South,187,6.0,13.0,31,0.00,,,0.04,651.000000,,2013-08-21 19:12:00,
2013-08-21 13:22:00,75.0,42.0,-100.00,South,187,6.0,13.0,31,0.00,,,0.04,651.000000,,2013-08-21 19:22:00,
2013-08-21 13:32:00,75.0,42.0,-100.00,South,187,6.0,13.0,31,0.00,,,0.04,651.000000,,2013-08-21 19:32:00,
2013-08-21 14:11:00,72.0,39.0,-100.00,WSW,239,7.0,12.0,30,0.00,,,0.04,301.000000,,2013-08-21 20:11:00,
2013-08-21 14:22:00,72.0,39.0,-100.00,WSW,239,7.0,12.0,30,0.00,,,0.04,301.000000,,2013-08-21 20:22:00,
2013-08-21 14:32:00,72.0,39.0,-100.00,WSW,239,7.0,12.0,30,0.00,,,0.04,301.000000,,2013-08-21 20:32:00,
2013-08-21 15:12:00,70.0,40.0,-100.00,NNW,337,6.0,12.0,33,0.00,,,0.04,70.000000,,2013-08-21 21:12:00,
2013-08-21 15:21:00,70.0,40.0,-100.00,NNW,337,6.0,12.0,33,0.00,,,0.04,70.000000,,2013-08-21 21:21:00,
2013-08-21 15:34:00,70.0,40.0,-100.00,NNW,337,6.0,12.0,33,0.00,,,0.04,70.000000,,2013-08-21 21:34:00,
2013-08-21 16:14:00,73.0,37.0,-100.00,NW,326,10.0,19.0,27,0.00,,,0.04,177.000000,,2013-08-21 22:14:00,
2013-08-21 16:24:00,73.0,37.0,-100.00,NW,326,10.0,19.0,27,0.00,,,0.04,177.000000,,2013-08-21 22:24:00,
2013-08-21 16:34:00,73.0,37.0,-100.00,NW,326,10.0,19.0,27,0.00,,,0.04,177.000000,,2013-08-21 22:34:00,
2013-08-21 18:12:00,75.0,39.0,-100.00,North,3,7.0,16.0,27,-99.99,,,0.04,300.000000,,2013-08-22 00:12:00,
2013-08-21 18:22:00,75.0,39.0,-100.00,North,3,7.0,16.0,27,-99.99,,,0.04,300.000000,,2013-08-22 00:22:00,
2013-08-21 18:32:00,75.0,39.0,-100.00,North,3,7.0,16.0,27,-99.99,,,0.04,300.000000,,2013-08-22 00:32:00,
2013-08-21 19:11:00,70.0,41.0,-100.00,NW,306,11.0,18.0,35,0.00,,,0.04,112.000000,,2013-08-22 01:11:00,
2013-08-21 19:22:00,70.0,41.0,-100.00,NW,306,11.0,18.0,35,0.00,,,0.04,112.000000,,2013-08-22 01:22:00,
2013-08-21 19:32:00,70.0,41.0,-100.00,NW,306,11.0,18.0,35,0.00,,,0.04,112.000000,,2013-08-22 01:32:00,
2013-08-21 20:12:00,66.0,41.0,-100.00,North,6,8.0,15.0,40,0.00,,,0.04,45.000000,,2013-08-22 02:12:00,
2013-08-21 20:22:00,66.0,41.0,-100.00,North,6,8.0,15.0,40,0.00,,,0.04,45.000000,,2013-08-22 02:22:00,
2013-08-21 20:32:00,66.0,41.0,-100.00,North,6,8.0,15.0,40,0.00,,,0.04,45.000000,,2013-08-22 02:32:00,
2013-08-21 21:12:00,63.0,41.0,-100.00,North,355,9.0,17.0,45,0.00,,,0.00,1.000000,,2013-08-22 03:12:00,
2013-08-21 21:22:00,63.0,41.0,-100.00,North,355,9.0,17.0,45,0.00,,,0.00,1.000000,,2013-08-22 03:22:00,
2013-08-21 21:34:00,63.0,41.0,-100.00,North,355,9.0,17.0,45,0.00,,,0.00,1.000000,,2013-08-22 03:34:00,
2013-08-21 22:14:00,60.0,43.0,-100.00,SE,138,4.0,20.0,54,0.00,,,0.00,0.000000,,2013-08-22 04:14:00,
2013-08-21 22:23:00,60.0,43.0,-100.00,SE,138,4.0,20.0,54,0.00,,,0.00,0.000000,,2013-08-22 04:23:00,
2013-08-21 22:34:00,60.0,43.0,-100.00,SE,138,4.0,20.0,54,0.00,,,0.00,0.000000,,2013-08-22 04:34:00,
2013-08-21 23:13:00,56.0,42.0,-100.00,NNW,342,4.0,10.0,60,0.00,,,0.00,0.000000,,2013-08-22 05:13:00,
2013-08-21 23:22:00,56.0,42.0,-100.00,NNW,342,4.0,10.0,60,0.00,,,0.00,0.000000,,2013-08-22 05:22:00,
2013-08-21 23:34:00,56.0,42.0,-100.00,NNW,342,4.0,10.0,60,0.00,,,0.00,0.000000,,2013-08-22 05:34:00,